Time;durP1;ratioP1;P1;durP2;ratioP2;P2;SDS_P1;SDS_P2;PMS_P1;PMS_P2;Temp;Humidity;BMP_temperature;BMP_pressure;BME280_temperature;BME280_humidity;BME280_pressure;Samples;Min_cycle;Max_cycle;Signal;HPM_P1;HPM_P2
2023/05/27 00:01:14;;;;;;;6.72;5.40;;;;;;;19.98;58.96;100209.53;1757154;82;21559;-66
2023/05/27 00:03:44;;;;;;;6.28;4.97;;;;;;;19.98;59.91;100208.98;1757263;82;21528;-67
2023/05/27 00:06:13;;;;;;;8.85;5.20;;;;;;;19.98;60.26;100205.37;1757367;82;21091;-65
2023/05/27 00:08:43;;;;;;;6.70;5.08;;;;;;;20.00;59.84;100208.72;1757239;82;21608;-67
2023/05/27 00:11:13;;;;;;;7.28;5.17;;;;;;;20.01;59.55;100211.79;1757405;82;21178;-67
2023/05/27 00:13:42;;;;;;;8.25;5.70;;;;;;;20.02;59.07;100204.58;1757379;82;21122;-67
2023/05/27 00:16:13;;;;;;;7.55;5.58;;;;;;;20.03;58.80;100199.84;1757123;82;21792;-66
2023/05/27 00:18:42;;;;;;;6.53;5.45;;;;;;;20.04;58.11;100201.52;1688042;85;21189;-67
2023/05/27 00:21:11;;;;;;;10.98;5.50;;;;;;;20.03;57.92;100202.08;1688263;85;21137;-66
2023/05/27 00:23:44;;;;;;;7.42;5.35;;;;;;;20.03;57.92;100196.52;1688440;83;21165;-67
2023/05/27 00:26:13;;;;;;;8.73;5.35;;;;;;;20.03;58.35;100201.23;1688016;85;21165;-66
2023/05/27 00:28:43;;;;;;;9.25;5.22;;;;;;;20.02;58.09;100200.95;1688312;85;21129;-66
2023/05/27 00:31:12;;;;;;;6.67;5.58;;;;;;;20.02;57.67;100196.78;1688131;85;21169;-67
2023/05/27 00:33:43;;;;;;;6.80;5.20;;;;;;;20.04;57.85;100196.80;1688123;85;21161;-67
2023/05/27 00:36:12;;;;;;;7.60;5.28;;;;;;;20.04;57.62;100197.35;1703980;82;21102;-66
2023/05/27 00:38:41;;;;;;;7.08;5.35;;;;;;;20.04;57.53;100202.92;1757380;80;21165;-66
2023/05/27 00:41:12;;;;;;;7.53;5.50;;;;;;;19.99;57.37;100202.32;1757292;81;21149;-66
2023/05/27 00:43:40;;;;;;;6.62;5.40;;;;;;;19.95;57.32;100202.56;1757372;82;21146;-67
2023/05/27 00:46:09;;;;;;;9.48;4.90;;;;;;;19.91;57.53;100199.47;1757131;82;21202;-66
2023/05/27 00:48:40;;;;;;;7.33;5.58;;;;;;;19.90;57.88;100198.34;1757414;82;21131;-66
2023/05/27 00:51:10;;;;;;;8.08;5.28;;;;;;;19.91;57.93;100193.91;1757286;80;21620;-67
2023/05/27 00:53:43;;;;;;;7.53;5.50;;;;;;;19.91;58.03;100195.84;1757376;81;21138;-66
2023/05/27 00:56:15;;;;;;;8.20;5.50;;;;;;;19.90;57.76;100195.56;1740388;82;21095;-67
2023/05/27 00:58:44;;;;;;;9.80;6.10;;;;;;;19.88;57.74;100197.22;1757160;82;21590;-67
2023/05/27 01:01:13;;;;;;;9.55;5.42;;;;;;;19.87;57.82;100191.38;1757168;81;21185;-66
2023/05/27 01:03:42;;;;;;;8.75;5.97;;;;;;;19.86;58.00;100188.30;1757257;82;21625;-67
2023/05/27 01:06:43;;;;;;;8.13;5.53;;;;;;;19.88;57.85;100193.59;1757586;81;21165;-67
2023/05/27 01:09:42;;;;;;;8.15;5.35;;;;;;;19.88;57.48;100190.81;1757437;82;21170;-67
2023/05/27 01:12:16;;;;;;;10.95;5.55;;;;;;;19.86;56.96;100189.69;1740095;82;21152;-66
2023/05/27 01:14:45;;;;;;;6.35;5.50;;;;;;;19.82;57.55;100188.54;1753904;81;21099;-66
2023/05/27 01:17:16;;;;;;;8.80;5.42;;;;;;;19.82;58.12;100187.70;1757269;82;21406;-65
2023/05/27 01:19:46;;;;;;;6.25;4.80;;;;;;;19.79;58.12;100189.06;1757219;82;21562;-66
2023/05/27 01:22:15;;;;;;;6.60;5.12;;;;;;;19.78;58.09;100190.17;1757584;82;21124;-65
2023/05/27 01:24:46;;;;;;;9.60;5.70;;;;;;;19.78;57.51;100181.83;1757382;82;21139;-66
2023/05/27 01:27:15;;;;;;;7.40;5.50;;;;;;;19.79;57.56;100184.06;1757387;80;21115;-68
2023/05/27 01:29:44;;;;;;;6.60;5.50;;;;;;;19.79;57.42;100182.67;1757568;82;21193;-65
2023/05/27 01:32:30;;;;;;;6.65;5.50;;;;;;;19.78;57.06;100180.44;1757143;82;21135;-65
2023/05/27 01:35:18;;;;;;;9.38;5.55;;;;;;;19.75;57.14;100180.13;1757136;82;21162;-66
2023/05/27 01:37:48;;;;;;;7.90;5.40;;;;;;;19.71;57.58;100178.43;1740755;82;21115;-66
2023/05/27 01:40:20;;;;;;;7.92;5.50;;;;;;;19.71;57.67;100178.98;1757457;82;21146;-66
2023/05/27 01:42:49;;;;;;;8.70;4.97;;;;;;;19.69;57.36;100182.58;1757566;81;21578;-66
2023/05/27 01:45:18;;;;;;;6.97;5.30;;;;;;;19.67;57.06;100181.45;1756983;81;21123;-67
2023/05/27 01:47:48;;;;;;;8.83;6.22;;;;;;;19.66;57.04;100181.71;1757371;81;21170;-65
2023/05/27 01:50:17;;;;;;;10.03;5.72;;;;;;;19.64;57.23;100181.97;1757451;82;21550;-65
2023/05/27 01:52:46;;;;;;;9.88;5.72;;;;;;;19.64;56.97;100184.75;1757160;82;21559;-66
2023/05/27 01:55:17;;;;;;;8.73;5.62;;;;;;;19.59;57.01;100182.76;1757360;82;21139;-66
2023/05/27 01:57:46;;;;;;;8.90;5.65;;;;;;;19.57;57.14;100189.68;1757253;82;21122;-65
2023/05/27 02:00:16;;;;;;;8.15;5.60;;;;;;;19.55;57.48;100189.11;1757319;81;21547;-65
2023/05/27 02:02:45;;;;;;;9.45;5.60;;;;;;;19.50;57.43;100188.44;1757423;82;21095;-65
2023/05/27 02:05:16;;;;;;;7.47;5.90;;;;;;;19.47;57.22;100182.02;1757339;82;21162;-66
2023/05/27 02:07:45;;;;;;;8.18;6.10;;;;;;;19.43;57.48;100188.36;1740619;82;21119;-65
2023/05/27 02:10:15;;;;;;;10.05;6.00;;;;;;;19.37;57.45;100187.46;1740802;82;21123;-69
2023/05/27 02:12:44;;;;;;;7.30;5.37;;;;;;;19.33;57.50;100191.86;1757207;82;21193;-66
2023/05/27 02:15:13;;;;;;;10.03;5.92;;;;;;;19.33;57.70;100191.31;1757357;82;21107;-64
2023/05/27 02:17:50;;;;;;;8.63;6.05;;;;;;;19.34;57.79;100187.98;1741024;82;21114;-65
2023/05/27 02:20:17;;;;;;;12.80;6.05;;;;;;;19.35;57.92;100192.44;1757296;81;21648;-65
2023/05/27 02:22:46;;;;;;;8.90;5.75;;;;;;;19.35;57.69;100194.38;1757508;81;21181;-66
2023/05/27 02:25:17;;;;;;;10.28;6.22;;;;;;;19.36;57.64;100189.11;1757290;82;21174;-66
2023/05/27 02:27:48;;;;;;;7.83;6.20;;;;;;;19.35;57.43;100192.44;1757440;82;21107;-64
2023/05/27 02:30:16;;;;;;;9.85;6.25;;;;;;;19.36;57.37;100191.89;1757286;82;21155;-65
2023/05/27 02:32:45;;;;;;;7.83;5.95;;;;;;;19.33;57.50;100198.26;1757318;82;21154;-65
2023/05/27 02:35:15;;;;;;;8.50;5.80;;;;;;;19.32;57.59;100200.74;1757497;80;21146;-65
2023/05/27 02:37:44;;;;;;;8.65;6.03;;;;;;;19.31;57.60;100203.23;1757364;82;21158;-64
2023/05/27 02:40:27;;;;;;;9.13;6.05;;;;;;;19.31;57.97;100197.67;1757124;82;21139;-66
2023/05/27 02:42:57;;;;;;;8.03;5.33;;;;;;;19.32;57.88;100202.69;1742742;82;21577;-65
2023/05/27 02:45:26;;;;;;;9.28;5.83;;;;;;;19.35;57.68;100201.33;1757191;82;21570;-66
2023/05/27 02:47:55;;;;;;;8.70;5.20;;;;;;;19.36;57.57;100201.61;1757505;82;21111;-66
2023/05/27 02:50:24;;;;;;;8.85;5.47;;;;;;;19.37;57.74;100194.95;1740722;82;21563;-66
2023/05/27 02:52:55;;;;;;;13.32;6.30;;;;;;;19.38;57.62;100198.03;1757237;82;21098;-64
2023/05/27 02:55:25;;;;;;;7.58;6.20;;;;;;;19.39;57.89;100196.92;1757365;81;21150;-65
2023/05/27 02:57:54;;;;;;;11.22;6.17;;;;;;;19.39;57.88;100195.53;1757188;82;21554;-65
2023/05/27 03:00:23;;;;;;;7.20;5.97;;;;;;;19.38;57.93;100199.41;1757254;82;21554;-65
2023/05/27 03:02:53;;;;;;;7.75;6.20;;;;;;;19.39;58.25;100201.09;1757214;81;21602;-65
2023/05/27 03:05:22;;;;;;;8.98;5.85;;;;;;;19.41;58.27;100203.90;1757351;82;21159;-65
2023/05/27 03:07:51;;;;;;;9.75;6.42;;;;;;;19.44;58.33;100196.43;1757551;82;21154;-64
2023/05/27 03:10:20;;;;;;;8.60;5.90;;;;;;;19.45;58.06;100197.27;1757364;82;21562;-64
2023/05/27 03:12:49;;;;;;;6.78;5.80;;;;;;;19.46;58.39;100198.95;1757105;82;21746;-65
2023/05/27 03:15:21;;;;;;;8.43;6.58;;;;;;;19.49;58.20;100202.05;1757323;82;21189;-65
2023/05/27 03:17:50;;;;;;;9.30;6.08;;;;;;;19.52;58.33;100204.36;1757282;82;21549;-65
2023/05/27 03:20:19;;;;;;;10.55;6.97;;;;;;;19.57;58.48;100203.58;1757328;82;21539;-66
2023/05/27 03:22:48;;;;;;;13.78;6.67;;;;;;;19.60;58.22;100207.23;1757337;82;21193;-64
2023/05/27 03:25:18;;;;;;;9.18;6.33;;;;;;;19.60;57.97;100201.67;1757136;82;21623;-65
2023/05/27 03:27:47;;;;;;;8.65;6.15;;;;;;;19.60;57.99;100207.23;1757217;82;21158;-64
2023/05/27 03:30:18;;;;;;;11.25;7.00;;;;;;;19.61;58.09;100201.95;1757279;82;21174;-65
2023/05/27 03:32:49;;;;;;;10.48;6.20;;;;;;;19.62;58.31;100202.24;1757460;80;21170;-65
2023/05/27 03:35:20;;;;;;;9.33;6.53;;;;;;;19.65;58.52;100207.28;1655559;85;21155;-66
2023/05/27 03:37:49;;;;;;;11.57;6.25;;;;;;;19.67;58.41;100207.02;1655997;85;21617;-65
2023/05/27 03:40:18;;;;;;;10.45;6.35;;;;;;;19.67;58.50;100197.28;1674175;85;21167;-65
2023/05/27 03:42:48;;;;;;;9.88;6.65;;;;;;;19.66;58.66;100197.84;1673813;86;21194;-65
2023/05/27 03:45:18;;;;;;;9.95;6.85;;;;;;;19.68;58.66;100197.58;1673486;86;21297;-65
2023/05/27 03:47:47;;;;;;;10.88;6.70;;;;;;;19.66;58.87;100204.78;1673687;86;21700;-65
2023/05/27 03:50:17;;;;;;;9.13;6.55;;;;;;;19.67;58.98;100198.12;1673610;86;21594;-66
2023/05/27 03:52:47;;;;;;;11.20;6.87;;;;;;;19.69;58.88;100207.59;1691398;82;21139;-64
2023/05/27 03:55:20;;;;;;;11.40;7.85;;;;;;;19.72;58.77;100210.69;1753961;81;21115;-72
2023/05/27 03:57:47;;;;;;;10.40;7.12;;;;;;;19.73;59.03;100214.30;1753844;81;21115;-65
2023/05/27 04:00:17;;;;;;;15.28;6.87;;;;;;;19.73;59.10;100212.36;1753983;82;21158;-65
2023/05/27 04:02:50;;;;;;;15.25;7.03;;;;;;;19.75;59.35;100210.71;1736081;82;21547;-66
2023/05/27 04:05:19;;;;;;;9.48;7.05;;;;;;;19.77;59.48;100209.34;1753885;81;21543;-65
2023/05/27 04:07:48;;;;;;;9.05;6.47;;;;;;;19.78;59.62;100211.02;1753887;82;21178;-65
2023/05/27 04:10:19;;;;;;;9.45;7.22;;;;;;;19.84;59.83;100216.92;1754306;81;21091;-65
2023/05/27 04:12:49;;;;;;;11.45;7.42;;;;;;;19.89;59.84;100214.19;1754138;82;21178;-65
2023/05/27 04:15:17;;;;;;;10.53;6.72;;;;;;;19.96;59.75;100216.75;1753830;81;21181;-64
2023/05/27 04:17:48;;;;;;;9.73;6.83;;;;;;;20.02;59.68;100210.13;1754088;82;21151;-64
2023/05/27 04:20:17;;;;;;;9.53;6.75;;;;;;;20.08;59.48;100213.25;1754106;82;21146;-64
2023/05/27 04:22:48;;;;;;;9.95;6.92;;;;;;;20.17;59.17;100209.45;1754141;82;21123;-65
2023/05/27 04:25:17;;;;;;;12.10;7.50;;;;;;;20.23;58.61;100215.34;1753984;80;21163;-63
2023/05/27 04:28:06;;;;;;;8.73;6.80;;;;;;;20.30;58.61;100214.57;1753330;81;21142;-65
2023/05/27 04:30:39;;;;;;;10.28;7.35;;;;;;;20.41;58.35;100214.13;1754161;80;21166;-65
2023/05/27 04:33:11;;;;;;;10.50;7.20;;;;;;;20.52;58.18;100218.66;1753601;81;21004;-66
2023/05/27 04:35:43;;;;;;;14.80;7.15;;;;;;;20.60;58.15;100222.89;1753937;82;21058;-63
2023/05/27 04:38:15;;;;;;;13.55;7.20;;;;;;;20.68;58.03;100221.83;1753905;82;21075;-64
2023/05/27 04:40:52;;;;;;;10.90;7.50;;;;;;;20.76;57.81;100221.88;1686441;85;21152;-65
2023/05/27 04:43:21;;;;;;;11.05;6.90;;;;;;;20.81;57.43;100221.38;1686511;83;21022;-64
2023/05/27 04:45:51;;;;;;;12.13;7.03;;;;;;;20.88;56.84;100219.75;1687618;85;21074;-64
2023/05/27 04:48:23;;;;;;;9.38;6.95;;;;;;;20.94;56.83;100221.45;1687581;85;21127;-66
2023/05/27 04:50:52;;;;;;;11.25;7.55;;;;;;;21.00;56.41;100223.16;1687534;85;21130;-65
2023/05/27 04:53:23;;;;;;;12.23;8.23;;;;;;;21.07;56.13;100225.14;1664518;85;21047;-64
2023/05/27 04:55:52;;;;;;;10.93;7.55;;;;;;;21.13;56.06;100226.84;1664566;85;21054;-65
2023/05/27 04:58:21;;;;;;;10.30;7.90;;;;;;;21.19;55.69;100228.54;1664715;85;21042;-65
2023/05/27 05:00:53;;;;;;;10.43;7.80;;;;;;;21.24;55.70;100229.70;1687565;85;21078;-65
2023/05/27 05:03:39;;;;;;;11.88;7.45;;;;;;;21.33;55.61;100226.67;1687733;85;21026;-65
2023/05/27 05:06:09;;;;;;;11.18;7.75;;;;;;;21.49;55.10;100223.70;1743689;82;21488;-64
2023/05/27 05:08:38;;;;;;;12.70;7.35;;;;;;;21.68;54.61;100232.39;1753956;81;21042;-65
2023/05/27 05:11:07;;;;;;;14.90;8.75;;;;;;;21.88;54.45;100226.02;1754104;82;21011;-64
2023/05/27 05:13:36;;;;;;;12.68;8.20;;;;;;;22.11;53.84;100219.95;1754015;82;21058;-64
2023/05/27 05:16:06;;;;;;;10.50;7.83;;;;;;;22.27;53.41;100219.96;1753930;82;21004;-65
2023/05/27 05:18:36;;;;;;;12.73;8.05;;;;;;;22.42;53.15;100212.41;1735364;82;21059;-65
2023/05/27 05:21:05;;;;;;;15.40;8.60;;;;;;;22.66;53.01;100218.80;1735119;82;21024;-65
2023/05/27 05:23:37;;;;;;;13.38;7.60;;;;;;;22.88;52.40;100218.53;1753790;81;21036;-66
2023/05/27 05:26:08;;;;;;;12.00;8.43;;;;;;;23.04;51.97;100213.17;1735105;82;21087;-63
2023/05/27 05:28:38;;;;;;;10.32;7.75;;;;;;;23.19;51.40;100213.67;1754094;81;21424;-64
2023/05/27 05:31:09;;;;;;;19.85;8.88;;;;;;;23.35;50.59;100219.47;1754108;81;21059;-64
2023/05/27 05:33:40;;;;;;;12.23;7.65;;;;;;;23.36;50.18;100216.95;1754084;81;21078;-64
2023/05/27 05:36:10;;;;;;;13.15;8.13;;;;;;;23.50;50.38;100218.59;1754001;82;21082;-65
2023/05/27 05:38:43;;;;;;;12.18;7.70;;;;;;;23.78;49.73;100219.86;1746007;81;21055;-64
2023/05/27 05:41:13;;;;;;;12.80;7.87;;;;;;;24.02;48.74;100216.61;1756956;82;21043;-64
2023/05/27 05:43:42;;;;;;;15.65;8.10;;;;;;;24.06;48.31;100223.33;1756946;82;21059;-64
2023/05/27 05:46:13;;;;;;;10.55;7.97;;;;;;;24.04;47.82;100224.98;1756944;82;21007;-64
2023/05/27 05:48:42;;;;;;;10.90;7.97;;;;;;;24.02;47.66;100228.64;1757122;82;21012;-64
2023/05/27 05:51:12;;;;;;;14.83;8.18;;;;;;;23.99;47.75;100236.78;1756890;81;21507;-66
2023/05/27 05:53:43;;;;;;;10.25;7.50;;;;;;;23.95;47.60;100225.34;1757284;81;21071;-66
2023/05/27 05:56:12;;;;;;;12.23;8.00;;;;;;;23.94;47.71;100229.27;1757106;82;21019;-63
2023/05/27 05:58:41;;;;;;;12.45;8.03;;;;;;;24.03;47.75;100231.71;1756975;80;21063;-65
2023/05/27 06:01:11;;;;;;;11.05;7.67;;;;;;;24.24;47.51;100236.63;1757174;81;21058;-64
2023/05/27 06:03:41;;;;;;;10.78;7.40;;;;;;;24.50;46.99;100239.23;1756900;82;21491;-65
2023/05/27 06:06:14;;;;;;;9.13;7.75;;;;;;;24.63;46.69;100242.75;1756835;81;21019;-65
2023/05/27 06:08:45;;;;;;;10.93;7.90;;;;;;;24.80;46.19;100239.53;1755009;81;21043;-65
2023/05/27 06:11:16;;;;;;;11.40;8.48;;;;;;;25.01;45.42;100245.79;1757165;81;20987;-66
2023/05/27 06:13:45;;;;;;;12.10;7.33;;;;;;;25.25;44.89;100250.83;1756932;81;21087;-65
2023/05/27 06:16:15;;;;;;;11.15;7.60;;;;;;;25.42;44.81;100247.00;1757005;82;21035;-65
2023/05/27 06:18:45;;;;;;;11.03;7.80;;;;;;;25.70;43.98;100251.44;1757135;82;21015;-65
2023/05/27 06:21:15;;;;;;;9.25;7.33;;;;;;;25.73;43.34;100256.45;1737859;82;21003;-64
2023/05/27 06:23:59;;;;;;;12.35;8.23;;;;;;;25.57;43.85;100252.41;1754245;81;21047;-63
2023/05/27 06:26:30;;;;;;;10.05;7.85;;;;;;;25.53;44.27;100258.36;1756716;81;21058;-65
2023/05/27 06:28:59;;;;;;;8.83;7.92;;;;;;;25.54;44.18;100258.63;1757191;81;20995;-63
2023/05/27 06:31:30;;;;;;;9.88;7.50;;;;;;;25.53;44.18;100261.16;1756895;82;21040;-64
2023/05/27 06:33:59;;;;;;;9.38;7.40;;;;;;;25.33;44.42;100264.20;1756937;82;21066;-64
2023/05/27 06:36:29;;;;;;;15.48;8.35;;;;;;;25.33;44.42;100264.20;1757067;82;21431;-64
2023/05/27 06:38:59;;;;;;;14.85;8.00;;;;;;;25.17;44.88;100269.72;1757210;80;21019;-66
2023/05/27 06:41:29;;;;;;;9.75;7.55;;;;;;;25.00;45.25;100270.19;1756882;82;21047;-64
2023/05/27 06:44:07;;;;;;;11.03;8.00;;;;;;;24.96;45.16;100269.91;1754146;82;21436;-63
2023/05/27 06:46:41;;;;;;;9.28;8.13;;;;;;;24.97;45.41;100276.35;1756460;81;21435;-64
2023/05/27 06:49:14;;;;;;;12.85;8.48;;;;;;;24.86;45.56;100277.02;1755647;81;21090;-66
2023/05/27 06:51:43;;;;;;;16.25;7.90;;;;;;;24.83;45.71;100280.98;1756844;81;21036;-64
2023/05/27 06:54:12;;;;;;;12.40;8.88;;;;;;;24.74;45.65;100284.98;1757012;81;21087;-65
2023/05/27 06:56:43;;;;;;;9.80;8.13;;;;;;;24.76;45.84;100285.53;1757018;81;21051;-66
2023/05/27 06:59:31;;;;;;;12.00;7.83;;;;;;;24.90;45.12;100281.47;1756829;82;21043;-65
2023/05/27 07:02:00;;;;;;;13.00;8.10;;;;;;;24.98;44.90;100285.63;1756999;80;21412;-64
2023/05/27 07:04:29;;;;;;;14.78;8.10;;;;;;;25.11;44.40;100282.13;1756706;82;20988;-64
2023/05/27 07:07:00;;;;;;;10.70;7.40;;;;;;;25.37;43.71;100276.52;1756886;81;21032;-65
2023/05/27 07:09:30;;;;;;;12.35;7.67;;;;;;;25.78;42.84;100284.45;1756850;81;21480;-64
2023/05/27 07:12:02;;;;;;;12.13;7.35;;;;;;;26.07;42.62;100282.36;1757040;81;21032;-65
2023/05/27 07:14:32;;;;;;;11.20;7.97;;;;;;;26.39;40.91;100273.75;1730139;82;21024;-64
2023/05/27 07:17:01;;;;;;;9.53;7.28;;;;;;;26.55;40.87;100277.98;1737673;82;21517;-65
2023/05/27 07:19:30;;;;;;;13.58;9.45;;;;;;;26.70;40.63;100271.28;1756833;80;21094;-64
2023/05/27 07:22:01;;;;;;;13.45;7.35;;;;;;;26.88;39.91;100273.77;1756844;81;21498;-65
2023/05/27 07:24:30;;;;;;;10.65;7.55;;;;;;;27.17;39.34;100264.52;1757138;81;21003;-64
2023/05/27 07:26:59;;;;;;;11.90;7.87;;;;;;;27.40;38.71;100259.30;1757078;82;21047;-65
2023/05/27 07:29:30;;;;;;;14.78;8.50;;;;;;;27.53;38.92;100270.28;1757161;82;21440;-64
2023/05/27 07:32:05;;;;;;;10.75;7.85;;;;;;;27.67;38.09;100255.65;1754272;81;21459;-64
2023/05/27 07:34:35;;;;;;;11.70;7.92;;;;;;;27.66;38.41;100259.61;1756909;82;21039;-65
2023/05/27 07:37:05;;;;;;;12.65;7.60;;;;;;;27.63;37.91;100256.59;1756809;82;21028;-65
2023/05/27 07:39:33;;;;;;;9.00;7.37;;;;;;;27.48;38.07;100256.31;1756852;82;21031;-65
2023/05/27 07:42:03;;;;;;;7.75;6.72;;;;;;;27.45;38.30;100255.54;1746644;81;21561;-65
2023/05/27 07:44:33;;;;;;;11.05;7.12;;;;;;;27.59;37.68;100256.93;1757366;82;21098;-64
2023/05/27 07:47:03;;;;;;;13.70;7.87;;;;;;;27.73;37.84;100257.78;1757108;82;21447;-66
2023/05/27 07:49:33;;;;;;;9.70;7.37;;;;;;;27.99;37.14;100256.66;1757070;80;21253;-65
2023/05/27 07:52:20;;;;;;;12.58;7.72;;;;;;;28.13;37.04;100257.44;1712170;84;21085;-65
2023/05/27 07:54:49;;;;;;;12.82;7.55;;;;;;;28.36;36.66;100252.68;1764023;80;21031;-64
2023/05/27 07:57:21;;;;;;;12.45;7.80;;;;;;;28.57;36.06;100252.42;1768994;80;21147;-66
2023/05/27 07:59:50;;;;;;;13.18;8.33;;;;;;;28.79;36.28;100250.18;1761943;80;21039;-66
2023/05/27 08:02:21;;;;;;;11.53;8.38;;;;;;;29.00;36.14;100244.27;1786403;80;21050;-66
2023/05/27 08:04:51;;;;;;;12.35;7.65;;;;;;;29.19;35.88;100241.77;1787235;80;21098;-67
2023/05/27 08:07:22;;;;;;;12.30;7.80;;;;;;;29.33;36.02;100247.59;1750478;82;21099;-68
2023/05/27 08:09:56;;;;;;;10.53;7.37;;;;;;;29.42;35.69;100249.61;1737515;82;21041;-67
2023/05/27 08:12:27;;;;;;;13.72;7.10;;;;;;;29.66;35.32;100245.80;1716972;83;21497;-66
2023/05/27 08:15:00;;;;;;;10.88;6.72;;;;;;;29.83;34.74;100247.82;1718831;83;21032;-67
2023/05/27 08:17:34;;;;;;;10.63;6.55;;;;;;;29.82;34.04;100247.57;1718878;83;21055;-68
2023/05/27 08:20:08;;;;;;;9.98;7.00;;;;;;;29.85;33.92;100245.50;1719693;83;21456;-68
2023/05/27 08:22:43;;;;;;;8.78;6.40;;;;;;;29.91;33.90;100249.82;1683695;83;21036;-68
2023/05/27 08:25:31;;;;;;;9.05;6.28;;;;;;;30.06;32.89;100255.63;1720860;83;21197;-66
2023/05/27 08:28:05;;;;;;;9.35;6.62;;;;;;;30.04;32.86;100252.31;1719729;83;21094;-67
2023/05/27 08:30:44;;;;;;;11.60;6.62;;;;;;;30.14;33.16;100256.22;1672012;85;21012;-66
2023/05/27 08:33:17;;;;;;;9.05;6.58;;;;;;;30.34;32.77;100245.66;1701403;83;21471;-67
2023/05/27 08:35:47;;;;;;;11.05;6.55;;;;;;;30.51;32.27;100241.39;1732293;83;21044;-68
2023/05/27 08:38:16;;;;;;;8.90;6.50;;;;;;;30.61;32.11;100252.17;1721225;83;21058;-69
2023/05/27 08:40:45;;;;;;;9.33;6.58;;;;;;;30.45;31.98;100248.39;1732365;83;21530;-69
2023/05/27 08:43:15;;;;;;;13.18;6.80;;;;;;;30.21;32.13;100248.08;1692149;83;21655;-67
2023/05/27 08:45:46;;;;;;;8.68;6.97;;;;;;;29.93;32.32;100251.19;1784668;79;21020;-67
2023/05/27 08:48:17;;;;;;;10.35;6.03;;;;;;;29.51;32.77;100245.69;1784598;80;21067;-66
2023/05/27 08:50:47;;;;;;;10.40;5.35;;;;;;;29.20;32.22;100245.69;1784951;80;21015;-67
2023/05/27 08:53:18;;;;;;;8.05;6.47;;;;;;;28.89;32.11;100245.70;1765730;80;21055;-68
2023/05/27 08:55:49;;;;;;;9.05;5.72;;;;;;;28.66;32.50;100240.66;1784605;79;21514;-68
2023/05/27 08:58:18;;;;;;;12.33;5.90;;;;;;;28.55;32.95;100249.09;1784615;80;21027;-68
2023/05/27 09:00:49;;;;;;;7.87;5.83;;;;;;;28.47;33.20;100241.41;1784935;79;21444;-68
2023/05/27 09:03:22;;;;;;;13.00;6.62;;;;;;;28.53;32.89;100242.94;1784933;79;21012;-67
2023/05/27 09:05:52;;;;;;;8.90;6.40;;;;;;;28.63;33.14;100246.10;1782967;79;21075;-67
2023/05/27 09:08:22;;;;;;;7.25;6.15;;;;;;;28.78;32.98;100241.47;1716174;83;21064;-68
2023/05/27 09:10:55;;;;;;;11.12;6.42;;;;;;;28.80;32.89;100232.68;1782495;80;21016;-68
2023/05/27 09:13:30;;;;;;;9.83;7.33;;;;;;;28.77;33.08;100228.52;1783233;80;21031;-72
2023/05/27 09:16:05;;;;;;;11.20;6.72;;;;;;;28.70;33.73;100231.80;1783364;80;21027;-66
2023/05/27 09:18:35;;;;;;;8.50;7.03;;;;;;;28.61;34.40;100229.51;1783383;80;21059;-65
2023/05/27 09:21:05;;;;;;;8.95;6.33;;;;;;;28.55;35.01;100236.41;1783094;80;21042;-65
2023/05/27 09:23:40;;;;;;;9.75;6.55;;;;;;;28.47;34.68;100227.31;1716242;83;21482;-64
2023/05/27 09:26:11;;;;;;;11.93;6.75;;;;;;;28.41;34.51;100228.59;1783383;80;21019;-64
2023/05/27 09:28:40;;;;;;;10.90;6.08;;;;;;;28.34;33.99;100230.45;1783125;80;21475;-64
2023/05/27 09:31:09;;;;;;;7.60;6.05;;;;;;;28.34;33.81;100230.45;1782926;80;21027;-65
2023/05/27 09:33:39;;;;;;;10.72;6.25;;;;;;;28.36;33.33;100225.91;1783121;80;21090;-63
2023/05/27 09:36:11;;;;;;;17.50;12.82;;;;;;;28.28;33.18;100229.50;1716246;83;21008;-65
2023/05/27 09:38:41;;;;;;;11.00;6.60;;;;;;;28.17;33.67;100235.09;1783208;80;21055;-64
2023/05/27 09:41:11;;;;;;;8.95;6.37;;;;;;;28.04;33.72;100225.55;1753383;80;21633;-65
2023/05/27 09:43:40;;;;;;;12.75;6.55;;;;;;;27.92;34.21;100226.08;1781970;80;21529;-65
2023/05/27 09:46:12;;;;;;;10.78;6.35;;;;;;;27.83;34.80;100226.57;1781206;80;21185;-64
2023/05/27 09:48:42;;;;;;;11.33;6.12;;;;;;;27.83;34.80;100226.57;1780986;80;21147;-65
2023/05/27 09:51:11;;;;;;;9.55;5.92;;;;;;;27.84;34.91;100239.50;1780884;80;21525;-63
2023/05/27 09:53:42;;;;;;;8.30;5.72;;;;;;;27.77;34.58;100219.39;1780832;80;21158;-67
2023/05/27 09:56:11;;;;;;;9.68;6.08;;;;;;;27.61;34.95;100214.68;1781088;80;21067;-65
2023/05/27 09:58:41;;;;;;;8.08;6.33;;;;;;;27.56;35.13;100211.95;1714156;83;21075;-65
2023/05/27 10:01:10;;;;;;;11.40;6.58;;;;;;;27.50;35.57;100201.12;1780773;80;21091;-65
2023/05/27 10:03:41;;;;;;;13.80;6.50;;;;;;;27.38;35.87;100196.86;1778297;80;21071;-66
2023/05/27 10:06:15;;;;;;;13.72;6.42;;;;;;;27.37;36.10;100199.99;1710320;82;21521;-64
2023/05/27 10:08:44;;;;;;;8.20;5.83;;;;;;;27.37;35.73;100194.37;1710194;82;21469;-65
2023/05/27 10:11:14;;;;;;;13.20;6.55;;;;;;;27.42;35.96;100185.23;1751658;82;21673;-65
2023/05/27 10:13:44;;;;;;;13.08;6.45;;;;;;;27.42;35.96;100185.23;1751740;81;21033;-69
2023/05/27 10:16:23;;;;;;;9.63;5.80;;;;;;;27.44;34.93;100179.30;1733137;82;21053;-65
2023/05/27 10:18:56;;;;;;;8.35;5.55;;;;;;;27.33;34.82;100174.46;1751823;82;21034;-66
2023/05/27 10:21:31;;;;;;;11.97;5.60;;;;;;;27.33;34.82;100174.46;1751631;81;21457;-66
2023/05/27 10:24:02;;;;;;;8.68;5.45;;;;;;;27.35;34.65;100166.54;1751574;81;21017;-67
2023/05/27 10:26:44;;;;;;;8.05;5.35;;;;;;;27.35;34.75;100165.13;1751758;80;21116;-64
2023/05/27 10:29:15;;;;;;;10.65;6.55;;;;;;;27.37;34.94;100169.88;1751795;80;21013;-66
2023/05/27 10:31:47;;;;;;;13.35;6.42;;;;;;;27.37;35.55;100164.24;1751657;80;21021;-66
2023/05/27 10:34:18;;;;;;;12.20;6.53;;;;;;;27.37;35.82;100156.38;1751574;81;21002;-66
2023/05/27 10:36:47;;;;;;;9.85;5.95;;;;;;;27.33;36.54;100155.34;1751762;80;21485;-67
2023/05/27 10:39:19;;;;;;;9.08;6.12;;;;;;;27.28;36.71;100156.26;1751685;82;21272;-69
2023/05/27 10:41:54;;;;;;;11.05;6.40;;;;;;;27.33;36.70;100163.21;1751536;82;21049;-68
2023/05/27 10:44:32;;;;;;;8.88;6.20;;;;;;;27.34;36.96;100162.06;1751761;80;21562;-66
2023/05/27 10:47:06;;;;;;;8.08;6.25;;;;;;;27.30;36.99;100156.77;1732880;82;21026;-69
2023/05/27 10:49:37;;;;;;;11.93;6.60;;;;;;;27.26;37.14;100160.53;1751533;80;21067;-67
2023/05/27 10:52:13;;;;;;;10.15;7.12;;;;;;;27.22;37.77;100166.53;1751559;82;21049;-67
2023/05/27 10:54:46;;;;;;;;;;;;;;;27.16;36.46;100175.66;1754272;80;21022;-68
2023/05/27 10:57:14;;;;;;;12.33;5.62;;;;;;;27.07;35.48;100174.72;1751775;80;20223;-67
2023/05/27 10:59:52;;;;;;;9.00;4.95;;;;;;;26.95;35.08;100175.78;1751600;80;21472;-73
2023/05/27 11:02:24;;;;;;;8.68;5.15;;;;;;;26.88;35.15;100176.20;1751483;81;21409;-68
2023/05/27 11:04:54;;;;;;;6.30;4.80;;;;;;;26.82;35.01;100176.03;1769222;80;21456;-69
2023/05/27 11:07:24;;;;;;;7.83;4.85;;;;;;;26.69;34.12;100177.69;1751000;80;21023;-69
2023/05/27 11:09:57;;;;;;;14.33;6.00;;;;;;;26.59;34.55;100180.66;1780848;80;20992;-70
2023/05/27 11:12:27;;;;;;;9.05;6.08;;;;;;;26.56;34.84;100181.28;1780769;80;21020;-70
2023/05/27 11:14:56;;;;;;;12.33;5.87;;;;;;;26.57;35.20;100175.09;1714282;83;21035;-70
2023/05/27 11:17:25;;;;;;;10.63;5.85;;;;;;;26.58;35.38;100171.14;1750996;80;21082;-69
2023/05/27 11:19:55;;;;;;;8.88;6.05;;;;;;;26.58;35.66;100171.97;1780779;80;21514;-70
2023/05/27 11:22:24;;;;;;;10.25;6.50;;;;;;;26.61;36.62;100165.73;1780790;80;21019;-70
2023/05/27 11:25:00;;;;;;;9.00;6.87;;;;;;;26.67;37.06;100162.28;1714113;84;21656;-70
2023/05/27 11:27:35;;;;;;;11.20;7.47;;;;;;;26.76;37.42;100161.25;1781275;80;21094;-70
2023/05/27 11:30:10;;;;;;;9.03;7.40;;;;;;;26.81;38.17;100156.93;1781058;80;22061;-68
2023/05/27 11:32:41;;;;;;;12.75;7.37;;;;;;;26.76;38.62;100150.00;1781035;80;21090;-69
2023/05/27 11:35:18;;;;;;;15.23;7.97;;;;;;;26.71;39.08;100154.32;1713985;84;21546;-72
2023/05/27 11:37:49;;;;;;;12.45;7.85;;;;;;;26.68;40.09;100154.94;1780769;80;21008;-69
2023/05/27 11:40:20;;;;;;;13.30;8.05;;;;;;;26.57;40.54;100155.42;1714141;84;21027;-69